createdAt,value
2019-03-05T15:49:52.787Z,23.23
2019-03-05T15:50:52.828Z,23.26
2019-03-05T15:52:45.483Z,23.23
2019-03-05T15:55:38.231Z,23.19
2019-03-05T15:56:38.159Z,23.26
2019-03-05T15:58:30.941Z,23.31
2019-03-05T15:59:31.002Z,23.23
2019-03-05T16:01:23.697Z,23.26
2019-03-05T16:02:23.622Z,23.24
2019-03-05T16:04:16.425Z,23.26
2019-03-05T16:05:20.294Z,23.27
2019-03-05T16:07:11.034Z,23.27
2019-03-05T16:08:09.106Z,23.27
2019-03-05T16:10:01.918Z,23.27
2019-03-05T16:11:01.845Z,23.27
2019-03-05T16:12:54.641Z,23.32
2019-03-05T16:13:56.532Z,23.34
2019-03-05T16:15:47.846Z,23.35
2019-03-05T16:16:51.745Z,23.39
2019-03-05T16:18:40.999Z,23.40
2019-03-05T16:19:40.946Z,23.39
2019-03-05T16:21:37.186Z,23.53
2019-03-05T16:22:33.715Z,23.43
2019-03-05T16:24:26.565Z,23.47
2019-03-05T16:25:26.487Z,23.47
2019-03-05T16:27:20.303Z,23.50
2019-03-05T16:28:20.227Z,23.46
2019-03-05T16:30:13.650Z,23.49
2019-03-05T16:31:12.988Z,23.49
2019-03-05T16:33:05.768Z,23.50
2019-03-05T16:34:09.373Z,23.47
2019-03-05T16:35:58.541Z,23.50
2019-03-05T16:37:02.134Z,23.50
2019-03-05T16:38:54.993Z,23.46
2019-03-05T16:39:51.221Z,23.50
2019-03-05T16:41:44.029Z,23.50
2019-03-05T16:42:43.980Z,23.57
2019-03-05T16:44:36.773Z,23.49
2019-03-05T16:45:36.759Z,23.57
2019-03-05T16:47:29.533Z,23.53
2019-03-05T16:48:29.524Z,23.55
2019-03-05T16:50:22.421Z,23.52
2019-03-05T16:51:22.260Z,23.50
2019-03-05T16:53:15.145Z,23.53
2019-03-05T16:54:14.966Z,23.47
2019-03-05T16:55:14.919Z,23.50
2019-03-05T16:56:14.904Z,23.47
2019-03-05T16:57:14.888Z,23.52
2019-03-05T16:58:14.784Z,23.52
2019-03-05T16:59:14.753Z,23.50
2019-03-05T17:00:14.752Z,23.52
2019-03-05T17:01:14.661Z,23.50
2019-03-05T17:02:14.616Z,23.52
2019-03-05T17:03:14.567Z,23.53
2019-03-05T17:04:14.524Z,23.58
2019-03-05T17:05:14.561Z,23.58
2019-03-05T17:06:14.428Z,23.58
2019-03-05T17:07:14.391Z,23.58
2019-03-05T17:08:14.344Z,23.57
2019-03-05T17:09:14.321Z,23.53
2019-03-05T17:10:14.322Z,23.53
2019-03-05T17:11:14.223Z,23.57
2019-03-05T17:12:14.169Z,23.57
2019-03-05T17:13:14.152Z,23.58
2019-03-05T17:14:14.169Z,23.57
2019-03-05T17:15:14.038Z,23.50
2019-03-05T17:16:13.993Z,23.53
2019-03-05T17:17:13.954Z,23.55
2019-03-05T17:18:13.905Z,23.52
2019-03-05T17:19:13.858Z,23.52
2019-03-05T17:20:13.827Z,23.53
2019-03-05T17:21:13.799Z,23.50
2019-03-05T17:22:13.726Z,23.49
2019-03-05T17:23:13.684Z,23.49
2019-03-05T17:24:13.678Z,23.53
2019-03-05T17:25:13.740Z,23.47
2019-03-05T17:26:13.644Z,23.47
2019-03-05T17:27:13.673Z,23.47
2019-03-05T17:28:13.493Z,23.50
2019-03-05T17:29:13.533Z,23.49
2019-03-05T17:30:13.381Z,23.50
2019-03-05T17:31:13.332Z,23.49
2019-03-05T17:32:13.288Z,23.43
2019-03-05T17:33:13.314Z,23.47
2019-03-05T17:34:13.202Z,23.47
2019-03-05T17:35:13.170Z,23.47
2019-03-05T17:36:13.111Z,23.46
2019-03-05T17:37:13.184Z,23.47
2019-03-05T17:38:13.039Z,23.40
2019-03-05T17:39:12.981Z,23.43
2019-03-05T17:40:12.935Z,23.40
2019-03-05T17:41:12.956Z,23.47
2019-03-05T17:42:12.904Z,23.38
2019-03-05T17:43:12.871Z,23.50
2019-03-05T17:44:12.760Z,23.43
2019-03-05T17:45:12.751Z,23.43
2019-03-05T17:46:12.763Z,23.35
2019-03-05T17:47:12.669Z,23.40
2019-03-05T17:48:12.582Z,23.35
2019-03-05T17:49:12.667Z,23.43
2019-03-05T17:50:12.612Z,23.35
2019-03-05T17:51:12.455Z,23.35
2019-03-05T17:52:12.409Z,23.42
2019-03-05T17:53:12.365Z,23.39
2019-03-05T17:54:12.319Z,23.40
2019-03-05T17:55:12.367Z,23.38
2019-03-05T17:56:12.233Z,23.43
2019-03-05T17:57:12.260Z,23.32
2019-03-05T17:58:12.219Z,23.35
2019-03-05T17:59:12.114Z,23.35
2019-03-05T18:00:12.130Z,23.35
2019-03-05T18:01:12.029Z,23.32
2019-03-05T18:02:11.967Z,23.27
2019-03-05T18:03:11.918Z,23.26
2019-03-05T18:04:11.879Z,23.34
2019-03-05T18:05:11.868Z,23.31
2019-03-05T18:06:11.790Z,23.34
2019-03-05T18:07:11.833Z,23.29
2019-03-05T18:08:11.706Z,23.27
2019-03-05T18:09:11.668Z,23.19
2019-03-05T18:10:11.615Z,23.20
2019-03-05T18:11:11.637Z,23.23
2019-03-05T18:12:11.530Z,23.24
2019-03-05T18:13:11.484Z,23.23
2019-03-05T18:14:11.513Z,23.22
2019-03-05T18:15:11.427Z,23.27
2019-03-05T18:16:11.435Z,23.22
2019-03-05T18:17:11.304Z,23.15
2019-03-05T18:18:11.260Z,23.20
2019-03-05T18:19:11.229Z,23.19
2019-03-05T18:20:11.175Z,23.15
2019-03-05T18:21:11.213Z,23.19
2019-03-05T18:22:11.087Z,23.17
2019-03-05T18:23:11.086Z,23.17
2019-03-05T18:24:11.056Z,23.19
2019-03-05T18:25:11.030Z,23.22
2019-03-05T18:26:11.012Z,23.19
2019-03-05T18:27:10.895Z,23.22
2019-03-05T18:28:10.823Z,23.19
2019-03-05T18:29:10.844Z,23.17
2019-03-05T18:30:10.734Z,23.19
2019-03-05T18:31:10.739Z,23.12
2019-03-05T18:32:10.711Z,23.17
2019-03-05T18:33:10.650Z,23.20
2019-03-05T18:34:10.554Z,23.22
2019-03-05T18:35:10.519Z,23.05
2019-03-05T18:36:10.639Z,23.08
2019-03-05T18:37:10.425Z,23.20
2019-03-05T18:38:10.437Z,23.05
2019-03-05T18:39:10.653Z,23.08
2019-03-05T18:40:10.489Z,23.05
2019-03-05T18:41:10.299Z,23.12
2019-03-05T18:42:10.305Z,23.04
2019-03-05T18:43:10.207Z,23.12
2019-03-05T18:44:10.288Z,23.09
2019-03-05T18:45:10.160Z,23.07
2019-03-05T18:46:10.035Z,23.09
2019-03-05T18:47:10.005Z,23.07
2019-03-05T18:48:10.016Z,23.09
2019-03-05T18:49:09.979Z,22.99
2019-03-05T18:50:09.954Z,23.02
2019-03-05T18:51:09.949Z,22.97
2019-03-05T18:52:09.768Z,23.01
2019-03-05T18:53:09.719Z,22.93
2019-03-05T18:54:09.699Z,23.04
2019-03-05T18:55:09.719Z,23.05
2019-03-05T18:56:09.662Z,22.99
2019-03-05T18:57:09.555Z,22.97
2019-03-05T18:58:09.534Z,22.97
2019-03-05T18:59:09.460Z,22.99
2019-03-05T19:00:09.446Z,22.99
2019-03-05T19:01:09.788Z,22.97
2019-03-05T19:02:09.325Z,22.96
2019-03-05T19:03:09.293Z,22.99
2019-03-05T19:04:09.237Z,23.01
2019-03-05T19:05:09.197Z,22.97
2019-03-05T19:06:09.157Z,22.96
2019-03-05T19:07:09.193Z,23.05
2019-03-05T19:08:09.076Z,22.99
2019-03-05T19:09:09.136Z,22.93
2019-03-05T19:10:08.973Z,23.04
2019-03-05T19:11:09.000Z,23.02
2019-03-05T19:12:08.989Z,22.92
2019-03-05T19:13:08.844Z,23.02
2019-03-05T19:14:09.014Z,22.96
2019-03-05T19:15:08.830Z,23.04
2019-03-05T19:16:08.781Z,22.99
2019-03-05T19:17:08.696Z,23.01
2019-03-05T19:18:09.255Z,22.92
2019-03-05T19:19:08.580Z,22.94
2019-03-05T19:20:08.599Z,23.04
2019-03-05T19:21:08.512Z,22.90
2019-03-05T19:22:08.529Z,22.90
2019-03-05T19:23:08.463Z,22.90
2019-03-05T19:24:08.357Z,22.93
2019-03-05T19:25:08.307Z,22.97
2019-03-05T19:26:08.267Z,23.01
2019-03-05T19:27:08.230Z,22.93
2019-03-05T19:28:08.226Z,22.94
2019-03-05T19:29:08.132Z,22.93
2019-03-05T19:30:08.088Z,22.94
2019-03-05T19:31:08.117Z,22.92
2019-03-05T19:32:08.014Z,22.94
2019-03-05T19:33:07.959Z,22.94
2019-03-05T19:34:07.907Z,22.97
2019-03-05T19:35:07.935Z,23.01
2019-03-05T19:36:07.823Z,22.94
2019-03-05T19:37:07.797Z,22.94
2019-03-05T19:38:07.737Z,22.89
2019-03-05T19:39:07.762Z,22.93
2019-03-05T19:40:07.648Z,22.92
2019-03-05T19:41:07.692Z,22.97
2019-03-05T19:42:07.564Z,22.94
2019-03-05T19:43:07.509Z,22.92
2019-03-05T19:44:07.466Z,22.94
2019-03-05T19:45:07.437Z,23.04
2019-03-05T19:46:07.377Z,22.99
2019-03-05T19:47:07.339Z,22.93
2019-03-05T19:48:07.292Z,22.93
2019-03-05T19:49:07.248Z,22.94
2019-03-05T19:50:08.212Z,22.94
2019-03-05T19:51:07.161Z,22.93
2019-03-05T19:52:07.119Z,22.94
2019-03-05T19:53:07.072Z,22.90
2019-03-05T19:54:07.087Z,23.04
2019-03-05T19:55:07.018Z,22.99
2019-03-05T19:56:06.932Z,22.99
2019-03-05T19:57:06.900Z,22.97
2019-03-05T19:58:06.863Z,22.99
2019-03-05T19:59:06.878Z,22.97
2019-03-05T20:00:06.809Z,22.99
2019-03-05T20:01:06.755Z,23.07
2019-03-05T20:02:06.679Z,22.97
2019-03-05T20:03:06.631Z,22.99
2019-03-05T20:04:11.621Z,22.97
2019-03-05T20:05:06.541Z,22.96
2019-03-05T20:06:06.510Z,23.01
2019-03-05T20:07:06.518Z,22.97
2019-03-05T20:08:06.478Z,23.01
2019-03-05T20:09:06.381Z,22.99
2019-03-05T20:10:06.335Z,22.96
2019-03-05T20:11:06.283Z,22.97
2019-03-05T20:12:06.232Z,23.01
2019-03-05T20:13:06.194Z,22.97
2019-03-05T20:14:06.169Z,23.08
2019-03-05T20:15:06.101Z,23.08
2019-03-05T20:16:06.058Z,23.02
2019-03-05T20:17:06.012Z,23.02
2019-03-05T20:18:07.407Z,23.07
2019-03-05T20:19:05.927Z,23.07
2019-03-05T20:20:05.875Z,22.97
2019-03-05T20:21:05.836Z,23.01
2019-03-05T20:22:05.792Z,23.02
2019-03-05T20:23:05.746Z,23.01
2019-03-05T20:24:05.697Z,23.04
2019-03-05T20:25:05.657Z,23.11
2019-03-05T20:26:05.678Z,22.99
2019-03-05T20:27:05.577Z,22.97
2019-03-05T20:28:05.578Z,23.01
2019-03-05T20:29:05.482Z,23.05
2019-03-05T20:30:05.437Z,23.08
2019-03-05T20:31:05.394Z,22.97
2019-03-05T20:32:05.351Z,22.97
2019-03-05T20:33:05.303Z,23.04
2019-03-05T20:34:05.257Z,23.07
2019-03-05T20:35:05.220Z,22.97
2019-03-05T20:36:05.170Z,22.97
2019-03-05T20:37:05.128Z,22.96
2019-03-05T20:38:05.085Z,23.04
2019-03-05T20:39:05.044Z,22.97
2019-03-05T20:40:04.994Z,22.94
2019-03-05T20:41:04.950Z,22.97
2019-03-05T20:42:04.904Z,23.02
2019-03-05T20:43:04.865Z,22.90
2019-03-05T20:44:04.814Z,22.90
2019-03-05T20:45:04.775Z,22.99
2019-03-05T20:46:04.729Z,23.02
2019-03-05T20:47:04.684Z,22.93
2019-03-05T20:48:04.642Z,22.96
2019-03-05T20:49:04.600Z,22.97
2019-03-05T20:50:04.552Z,22.92
2019-03-05T20:51:04.513Z,22.96
2019-03-05T20:52:04.465Z,23.01
2019-03-05T20:53:04.422Z,22.94
2019-03-05T20:54:04.394Z,22.93
2019-03-05T20:55:04.332Z,22.97
2019-03-05T20:56:04.286Z,22.94
2019-03-05T20:57:04.245Z,22.90
2019-03-05T20:58:04.197Z,22.92
2019-03-05T20:59:04.155Z,22.90
2019-03-05T21:00:04.116Z,22.97
2019-03-05T21:01:04.072Z,22.92
2019-03-05T21:02:04.020Z,22.84
2019-03-05T21:03:03.993Z,22.92
2019-03-05T21:04:03.998Z,22.89
2019-03-05T21:05:03.903Z,22.84
2019-03-05T21:06:03.844Z,22.86
2019-03-05T21:07:03.849Z,22.86
2019-03-05T21:08:03.776Z,22.93
2019-03-05T21:09:03.715Z,22.92
2019-03-05T21:10:03.674Z,22.89
2019-03-05T21:11:03.628Z,22.83
2019-03-05T21:12:03.578Z,22.87
2019-03-05T21:13:03.539Z,22.90
2019-03-05T21:14:03.490Z,22.84
2019-03-05T21:15:03.459Z,22.90
2019-03-05T21:16:03.402Z,22.86
2019-03-05T21:17:03.362Z,22.92
2019-03-05T21:18:03.325Z,22.87
2019-03-05T21:19:03.274Z,22.86
2019-03-05T21:20:03.229Z,22.84
2019-03-05T21:21:03.191Z,22.84
2019-03-05T21:22:03.138Z,22.84
2019-03-05T21:23:03.099Z,22.80
2019-03-05T21:24:03.049Z,22.80
2019-03-05T21:25:03.006Z,22.83
2019-03-05T21:26:02.961Z,22.80
2019-03-05T21:27:02.918Z,22.77
2019-03-05T21:28:02.881Z,22.74
2019-03-05T21:29:02.828Z,22.75
2019-03-05T21:30:02.803Z,22.77
2019-03-05T21:31:02.740Z,22.75
2019-03-05T21:32:02.695Z,22.77
2019-03-05T21:33:02.660Z,22.77
2019-03-05T21:34:02.606Z,22.77
2019-03-05T21:35:02.562Z,22.75
2019-03-05T21:36:02.516Z,22.75
2019-03-05T21:37:02.474Z,22.72
2019-03-05T21:38:02.429Z,22.75
2019-03-05T21:39:02.390Z,22.74
2019-03-05T21:40:02.340Z,22.74
2019-03-05T21:41:02.302Z,22.75
2019-03-05T21:42:02.253Z,22.71
2019-03-05T21:43:02.208Z,22.69
2019-03-05T21:44:02.172Z,22.72
2019-03-05T21:45:03.937Z,22.75
2019-03-05T21:46:02.096Z,22.74
2019-03-05T21:47:02.033Z,22.71
2019-03-05T21:48:01.984Z,22.65
2019-03-05T21:49:01.946Z,22.75
2019-03-05T21:50:01.917Z,22.77
2019-03-05T21:51:01.951Z,22.67
2019-03-05T21:52:01.815Z,22.69
2019-03-05T21:53:01.764Z,22.72
2019-03-05T21:54:01.735Z,22.71
2019-03-05T21:55:01.672Z,22.71
2019-03-05T21:56:01.639Z,22.72
2019-03-05T21:57:01.589Z,22.68
2019-03-05T21:58:01.553Z,22.74
2019-03-05T21:59:01.502Z,22.69
2019-03-05T22:00:01.452Z,22.72
2019-03-05T22:01:01.410Z,22.68
2019-03-05T22:02:01.370Z,22.68
2019-03-05T22:03:01.330Z,22.68
2019-03-05T22:04:01.295Z,22.69
2019-03-05T22:05:01.235Z,22.67
2019-03-05T22:06:01.197Z,22.72
2019-03-05T22:07:01.145Z,22.71
2019-03-05T22:08:01.104Z,22.60
2019-03-05T22:09:01.056Z,22.68
2019-03-05T22:10:01.060Z,22.65
2019-03-05T22:11:00.969Z,22.64
2019-03-05T22:12:00.934Z,22.62
2019-03-05T22:13:00.880Z,22.67
2019-03-05T22:14:00.869Z,22.60
2019-03-05T22:15:00.815Z,22.67
2019-03-05T22:16:00.751Z,22.69
2019-03-05T22:17:00.702Z,22.68
2019-03-05T22:18:00.658Z,22.60
2019-03-05T22:19:00.617Z,22.62
2019-03-05T22:20:00.574Z,22.62
2019-03-05T22:21:00.543Z,22.67
2019-03-05T22:22:00.482Z,22.71
2019-03-05T22:23:00.441Z,22.65
2019-03-05T22:24:00.391Z,22.62
2019-03-05T22:25:00.354Z,22.60
2019-03-05T22:26:00.311Z,22.62
2019-03-05T22:27:00.261Z,22.67
2019-03-05T22:28:00.229Z,22.57
2019-03-05T22:29:00.185Z,22.62
2019-03-05T22:30:00.397Z,22.59
2019-03-05T22:31:00.081Z,22.57
2019-03-05T22:32:00.032Z,22.59
2019-03-05T22:32:59.992Z,22.62
2019-03-05T22:33:59.946Z,22.64
2019-03-05T22:34:59.907Z,22.59
2019-03-05T22:35:59.859Z,22.60
2019-03-05T22:36:59.818Z,22.60
2019-03-05T22:37:59.771Z,22.52
2019-03-05T22:38:59.727Z,22.57
2019-03-05T22:39:59.677Z,22.53
2019-03-05T22:40:59.637Z,22.56
2019-03-05T22:41:59.594Z,22.65
2019-03-05T22:42:59.547Z,22.60
2019-03-05T22:43:59.504Z,22.54
2019-03-05T22:44:59.459Z,22.59
2019-03-05T22:45:59.416Z,22.57
2019-03-05T22:46:59.374Z,22.59
2019-03-05T22:47:59.325Z,22.53
2019-03-05T22:48:59.283Z,22.52
2019-03-05T22:49:59.239Z,22.54
2019-03-05T22:50:59.194Z,22.54
2019-03-05T22:51:59.147Z,22.53
2019-03-05T22:52:59.103Z,22.53
2019-03-05T22:53:59.060Z,22.54
2019-03-05T22:54:59.016Z,22.57
2019-03-05T22:55:58.972Z,22.64
2019-03-05T22:56:58.926Z,22.60
2019-03-05T22:57:58.882Z,22.52
2019-03-05T22:58:58.839Z,22.64
2019-03-05T22:59:58.793Z,22.50
2019-03-05T23:00:58.742Z,22.65
2019-03-05T23:01:58.704Z,22.54
2019-03-05T23:02:58.661Z,22.57
2019-03-05T23:03:58.616Z,22.53
2019-03-05T23:04:58.570Z,22.52
2019-03-05T23:05:58.528Z,22.56
2019-03-05T23:06:58.484Z,22.53
2019-03-05T23:07:58.437Z,22.53
2019-03-05T23:08:58.463Z,22.50
2019-03-05T23:09:58.350Z,22.52
2019-03-05T23:10:58.301Z,22.57
2019-03-05T23:11:58.261Z,22.50
2019-03-05T23:12:58.212Z,22.57
2019-03-05T23:13:58.170Z,22.56
2019-03-05T23:14:58.127Z,22.56
2019-03-05T23:15:58.085Z,22.52
2019-03-05T23:16:58.034Z,22.54
2019-03-05T23:17:57.996Z,22.49
2019-03-05T23:18:57.954Z,22.54
2019-03-05T23:19:57.904Z,22.56
2019-03-05T23:20:57.859Z,22.56
2019-03-05T23:21:57.825Z,22.52
2019-03-05T23:22:57.773Z,22.52
2019-03-05T23:23:57.724Z,22.50
2019-03-05T23:24:57.681Z,22.50
2019-03-05T23:25:57.644Z,22.50
2019-03-05T23:26:57.592Z,22.54
2019-03-05T23:27:57.549Z,22.52
2019-03-05T23:28:57.508Z,22.54
2019-03-05T23:29:57.465Z,22.52
2019-03-05T23:30:57.416Z,22.50
2019-03-05T23:31:57.386Z,22.57
2019-03-05T23:32:57.327Z,22.53
2019-03-05T23:33:57.320Z,22.56
2019-03-05T23:34:57.237Z,22.46
2019-03-05T23:35:57.202Z,22.54
2019-03-05T23:36:57.151Z,22.50
2019-03-05T23:37:57.113Z,22.50
2019-03-05T23:38:57.062Z,22.52
2019-03-05T23:39:57.015Z,22.52
2019-03-05T23:40:56.972Z,22.54
2019-03-05T23:41:56.925Z,22.54
2019-03-05T23:42:56.884Z,22.54
2019-03-05T23:43:56.841Z,22.53
2019-03-05T23:44:56.810Z,22.53
2019-03-05T23:45:56.748Z,22.50
2019-03-05T23:46:56.706Z,22.54
2019-03-05T23:47:56.681Z,22.52
2019-03-05T23:48:56.616Z,22.57
2019-03-05T23:49:56.582Z,22.54
2019-03-05T23:50:56.543Z,22.50
2019-03-05T23:51:56.488Z,22.54
2019-03-05T23:52:56.444Z,22.56
2019-03-05T23:53:56.395Z,22.53
2019-03-05T23:54:56.355Z,22.52
2019-03-05T23:55:56.307Z,22.53
2019-03-05T23:56:56.262Z,22.57
2019-03-05T23:57:56.215Z,22.50
2019-03-05T23:58:56.174Z,22.52
2019-03-05T23:59:56.128Z,22.53
